Time;durP1;ratioP1;P1;durP2;ratioP2;P2;SDS_P1;SDS_P2;PMS_P1;PMS_P2;Temp;Humidity;BMP_temperature;BMP_pressure;BME280_temperature;BME280_humidity;BME280_pressure;Samples;Min_cycle;Max_cycle;Signal;HPM_P1;HPM_P2
2021/05/03 00:00:15;;;;;;;14.05;12.50;;;7.80;73.80;;;;;;6149313;23;20551;-83
2021/05/03 00:02:42;;;;;;;14.07;12.57;;;7.80;74.00;;;;;;6148788;23;20208;-85
2021/05/03 00:05:18;;;;;;;15.75;13.05;;;7.80;74.10;;;;;;6147601;23;20203;-84
2021/05/03 00:07:46;;;;;;;13.38;12.07;;;7.80;74.20;;;;;;6151702;23;20172;-83
2021/05/03 00:10:13;;;;;;;16.55;13.05;;;7.80;73.70;;;;;;6142611;23;20188;-85
2021/05/03 00:12:39;;;;;;;16.10;14.52;;;7.80;73.60;;;;;;6142812;23;20241;-82
2021/05/03 00:15:07;;;;;;;15.43;13.38;;;7.70;74.30;;;;;;6138387;23;20211;-85
2021/05/03 00:17:34;;;;;;;13.93;12.52;;;7.70;74.50;;;;;;6140768;23;20184;-81
2021/05/03 00:20:00;;;;;;;16.55;13.88;;;7.70;75.20;;;;;;6136309;23;20196;-82
2021/05/03 00:22:31;;;;;;;17.48;14.88;;;7.70;75.30;;;;;;6134710;23;20187;-81
2021/05/03 00:25:18;;;;;;;15.00;13.23;;;7.70;75.30;;;;;;6146593;23;20531;-82
2021/05/03 00:27:44;;;;;;;15.55;13.43;;;7.70;75.30;;;;;;6133865;23;20560;-83
2021/05/03 00:30:12;;;;;;;19.45;13.45;;;7.80;75.40;;;;;;6131260;23;20177;-83
2021/05/03 00:32:39;;;;;;;16.05;12.30;;;7.80;74.40;;;;;;6130654;23;20185;-82
2021/05/03 00:35:06;;;;;;;15.05;13.45;;;7.80;73.80;;;;;;6132536;23;20549;-83
2021/05/03 00:37:32;;;;;;;14.20;12.05;;;7.80;73.90;;;;;;6131742;23;20176;-82
2021/05/03 00:39:59;;;;;;;14.07;12.40;;;7.80;73.10;;;;;;6132763;23;20180;-82
2021/05/03 00:42:26;;;;;;;13.95;12.45;;;7.80;72.50;;;;;;6130399;23;20184;-84
2021/05/03 00:44:53;;;;;;;14.32;12.82;;;7.90;72.30;;;;;;6131005;23;20208;-84
2021/05/03 00:47:20;;;;;;;14.57;12.65;;;7.80;72.00;;;;;;6130768;23;20396;-81
2021/05/03 00:49:47;;;;;;;13.77;12.32;;;7.80;71.80;;;;;;6130405;23;20235;-81
2021/05/03 00:52:13;;;;;;;13.55;11.85;;;7.80;71.80;;;;;;6134977;23;20643;-82
2021/05/03 00:54:40;;;;;;;14.50;12.10;;;7.90;71.80;;;;;;6134145;23;20619;-81
2021/05/03 00:57:07;;;;;;;14.18;12.68;;;7.90;70.80;;;;;;6129416;23;20200;-81
2021/05/03 00:59:35;;;;;;;13.98;11.68;;;7.80;70.30;;;;;;6128824;23;20185;-81
2021/05/03 01:02:02;;;;;;;13.77;12.25;;;7.80;70.40;;;;;;6137729;23;20176;-84
2021/05/03 01:04:29;;;;;;;12.75;11.32;;;7.80;70.60;;;;;;6152174;23;20181;-86
2021/05/03 01:06:55;;;;;;;14.27;11.90;;;7.80;70.30;;;;;;6145111;23;20208;-82
2021/05/03 01:09:22;;;;;;;12.50;11.30;;;7.90;69.60;;;;;;6131067;23;20717;-82
2021/05/03 01:11:48;;;;;;;13.00;11.75;;;7.70;69.00;;;;;;6131930;23;20185;-85
2021/05/03 01:14:15;;;;;;;11.93;10.65;;;7.80;69.20;;;;;;6131203;23;20639;-84
2021/05/03 01:16:42;;;;;;;12.13;10.93;;;7.70;68.30;;;;;;6143701;23;20223;-85
2021/05/03 01:19:09;;;;;;;12.45;11.15;;;7.70;68.60;;;;;;6152027;23;20172;-87
2021/05/03 01:21:36;;;;;;;11.10;10.02;;;7.70;67.60;;;;;;6150230;23;20180;-84
2021/05/03 01:24:03;;;;;;;11.43;10.27;;;7.70;66.90;;;;;;6133341;23;20176;-81
2021/05/03 01:26:30;;;;;;;11.65;10.38;;;7.70;66.60;;;;;;6132708;23;20208;-83
2021/05/03 01:28:56;;;;;;;12.13;10.93;;;7.70;66.60;;;;;;6132061;23;20179;-81
2021/05/03 01:31:23;;;;;;;11.52;10.38;;;7.70;66.60;;;;;;6134625;23;20181;-81
2021/05/03 01:33:50;;;;;;;11.00;9.70;;;7.60;66.50;;;;;;6150912;23;20168;-85
2021/05/03 01:36:17;;;;;;;11.70;10.50;;;7.60;66.50;;;;;;6148994;23;20214;-84
2021/05/03 01:38:45;;;;;;;12.80;11.50;;;7.60;67.40;;;;;;6129897;23;20235;-84
2021/05/03 01:41:11;;;;;;;11.85;10.65;;;7.60;67.80;;;;;;6127966;23;20499;-80
2021/05/03 01:43:38;;;;;;;11.40;10.00;;;7.60;67.80;;;;;;6128531;23;20528;-84
2021/05/03 01:46:04;;;;;;;12.07;10.88;;;7.50;67.90;;;;;;6129505;23;20204;-81
2021/05/03 01:48:32;;;;;;;12.52;11.20;;;7.50;68.20;;;;;;6139512;23;20180;-83
2021/05/03 01:50:59;;;;;;;11.77;10.57;;;7.50;68.30;;;;;;6152776;23;20176;-86
2021/05/03 01:53:26;;;;;;;11.15;10.05;;;7.50;68.30;;;;;;6152330;23;20188;-88
2021/05/03 01:55:56;;;;;;;13.85;10.82;;;7.50;68.30;;;;;;6139963;23;20204;-88
2021/05/03 01:58:24;;;;;;;13.02;10.48;;;7.50;66.50;;;;;;6154028;23;20199;-86
2021/05/03 02:00:51;;;;;;;10.98;9.77;;;7.50;66.40;;;;;;6153692;23;20270;-86
2021/05/03 02:06:41;;;;;;;12.88;10.55;;;7.50;65.50;;;;;;6146263;23;20199;-82
2021/05/03 02:12:43;;;;;;;11.00;9.60;;;7.40;64.50;;;;;;6030323;23;20181;-80
2021/05/03 02:15:12;;;;;;;11.65;10.07;;;7.40;64.00;;;;;;6133154;23;20428;-80
2021/05/03 02:17:38;;;;;;;12.63;10.75;;;7.40;64.10;;;;;;6152070;23;20180;-82
2021/05/03 02:20:06;;;;;;;10.85;9.75;;;7.30;64.00;;;;;;6153765;23;20169;-83
2021/05/03 02:22:32;;;;;;;10.93;9.82;;;7.30;64.20;;;;;;6154372;23;20191;-83
2021/05/03 02:24:59;;;;;;;11.02;9.82;;;7.30;64.30;;;;;;6153570;23;20220;-83
2021/05/03 02:27:25;;;;;;;11.77;10.57;;;7.30;64.40;;;;;;6151890;23;20168;-81
2021/05/03 02:29:53;;;;;;;10.95;9.68;;;7.30;63.80;;;;;;6146492;23;20226;-80
2021/05/03 02:32:25;;;;;;;12.15;10.30;;;7.30;63.80;;;;;;6149764;23;20262;-78
2021/05/03 02:34:51;;;;;;;11.15;10.02;;;7.30;63.60;;;;;;6144867;23;20216;-80
2021/05/03 02:37:18;;;;;;;11.77;8.88;;;7.30;63.40;;;;;;6152972;23;20188;-81
2021/05/03 02:39:44;;;;;;;11.55;9.70;;;7.30;63.60;;;;;;6153436;23;20177;-85
2021/05/03 02:42:11;;;;;;;12.35;9.27;;;7.20;63.40;;;;;;6139974;23;20608;-79
2021/05/03 02:44:39;;;;;;;10.52;9.25;;;7.20;63.30;;;;;;6131135;23;20176;-80
2021/05/03 02:47:08;;;;;;;10.68;9.00;;;7.10;63.10;;;;;;6133594;23;20177;-81
2021/05/03 02:49:34;;;;;;;10.80;9.00;;;7.10;63.00;;;;;;6132985;23;20631;-79
2021/05/03 02:52:01;;;;;;;9.60;8.60;;;7.00;63.00;;;;;;6134607;23;20207;-80
2021/05/03 02:54:30;;;;;;;9.73;8.73;;;7.00;63.10;;;;;;6139570;23;20180;-79
2021/05/03 02:56:57;;;;;;;10.60;8.98;;;6.90;63.40;;;;;;6149989;23;20211;-81
2021/05/03 02:59:36;;;;;;;10.10;9.00;;;6.90;63.50;;;;;;6146445;23;20184;-80
2021/05/03 03:02:08;;;;;;;11.43;9.20;;;6.90;63.20;;;;;;6115040;23;20184;-81
2021/05/03 03:04:35;;;;;;;9.88;8.82;;;6.80;63.00;;;;;;6138120;23;20180;-79
2021/05/03 03:07:08;;;;;;;11.73;9.18;;;6.70;63.20;;;;;;6146886;23;20201;-79
2021/05/03 03:09:35;;;;;;;9.48;8.50;;;6.80;63.30;;;;;;6146919;23;20169;-78
2021/05/03 03:12:03;;;;;;;13.32;9.27;;;6.80;63.50;;;;;;6140552;23;20184;-83
2021/05/03 03:14:29;;;;;;;11.70;9.80;;;6.80;63.00;;;;;;6147081;23;20181;-80
2021/05/03 03:16:56;;;;;;;11.10;9.27;;;6.80;62.70;;;;;;6144942;23;20211;-81
2021/05/03 03:19:23;;;;;;;10.63;8.77;;;6.70;62.80;;;;;;6143368;23;20184;-79
2021/05/03 03:21:51;;;;;;;11.10;9.93;;;6.70;62.90;;;;;;6133147;23;20184;-79
2021/05/03 03:24:18;;;;;;;11.55;8.63;;;6.70;62.80;;;;;;6130820;23;20177;-81
2021/05/03 03:26:48;;;;;;;11.68;8.75;;;6.80;62.80;;;;;;6130525;23;20211;-79
2021/05/03 03:29:15;;;;;;;9.93;8.95;;;6.80;62.40;;;;;;6131941;23;20177;-79
2021/05/03 03:31:42;;;;;;;10.50;9.40;;;6.80;61.90;;;;;;6133260;23;20231;-79
2021/05/03 03:34:08;;;;;;;12.07;9.45;;;6.80;61.40;;;;;;6139189;23;20181;-81
2021/05/03 03:36:35;;;;;;;10.40;8.43;;;6.80;61.50;;;;;;6143278;23;20201;-81
2021/05/03 03:39:03;;;;;;;9.80;8.35;;;6.80;61.80;;;;;;6147224;23;20376;-82
2021/05/03 03:41:29;;;;;;;12.23;9.60;;;6.80;61.70;;;;;;6150172;23;20191;-80
2021/05/03 03:43:56;;;;;;;10.00;8.80;;;6.90;61.60;;;;;;6148039;23;20181;-81
2021/05/03 03:46:22;;;;;;;11.45;8.90;;;6.90;61.50;;;;;;6130083;23;20224;-79
2021/05/03 03:48:49;;;;;;;9.80;8.80;;;6.90;61.50;;;;;;6148103;23;20188;-83
2021/05/03 03:51:16;;;;;;;10.60;9.10;;;7.00;61.10;;;;;;6151677;23;20181;-80
2021/05/03 03:53:43;;;;;;;11.65;9.70;;;7.00;60.50;;;;;;6151492;23;20173;-84
2021/05/03 03:56:12;;;;;;;10.70;9.55;;;7.10;60.40;;;;;;6148727;23;20196;-79
2021/05/03 03:58:39;;;;;;;10.65;8.63;;;7.00;60.10;;;;;;6128865;23;20187;-81
2021/05/03 04:01:06;;;;;;;10.93;9.25;;;7.10;60.30;;;;;;6129611;23;20251;-82
2021/05/03 04:03:32;;;;;;;12.73;10.02;;;7.10;60.00;;;;;;6129819;23;20360;-80
2021/05/03 04:06:16;;;;;;;11.32;9.77;;;7.10;60.20;;;;;;6130185;23;20251;-82
2021/05/03 04:08:49;;;;;;;10.10;8.85;;;7.10;60.40;;;;;;6135213;23;20169;-83
2021/05/03 04:11:28;;;;;;;9.98;8.82;;;7.10;60.80;;;;;;6140418;23;20495;-79
2021/05/03 04:14:24;;;;;;;12.35;8.88;;;7.10;60.80;;;;;;6129257;23;20603;-79
2021/05/03 04:25:15;;;;;;;14.13;9.60;;;7.00;61.60;;;;;;6148757;23;20260;-80
2021/05/03 04:27:42;;;;;;;10.48;8.90;;;7.00;61.90;;;;;;6150100;23;20220;-80
2021/05/03 04:30:10;;;;;;;13.23;9.85;;;7.00;62.40;;;;;;6137535;23;20184;-80
2021/05/03 04:32:37;;;;;;;12.30;9.48;;;7.00;62.10;;;;;;6139089;23;20184;-80
2021/05/03 04:35:04;;;;;;;10.57;9.43;;;7.00;62.50;;;;;;6137507;23;20197;-81
2021/05/03 04:37:31;;;;;;;10.75;9.65;;;7.00;62.60;;;;;;6134211;23;20193;-80
2021/05/03 04:39:58;;;;;;;13.15;9.43;;;7.00;63.00;;;;;;6132251;23;20252;-80
2021/05/03 04:42:25;;;;;;;11.23;9.60;;;7.00;63.10;;;;;;6130834;23;20181;-81
2021/05/03 04:44:51;;;;;;;14.07;10.43;;;7.00;63.10;;;;;;6133042;23;20173;-81
2021/05/03 04:47:19;;;;;;;11.35;10.20;;;7.00;62.90;;;;;;6134114;23;20631;-80
2021/05/03 04:49:46;;;;;;;12.43;10.23;;;7.10;62.70;;;;;;6133738;23;20226;-79
2021/05/03 04:52:17;;;;;;;13.60;9.35;;;7.00;62.80;;;;;;6140196;23;20181;-81
2021/05/03 04:58:03;;;;;;;11.25;9.80;;;7.10;63.10;;;;;;6146061;23;20184;-81
2021/05/03 05:00:30;;;;;;;12.07;10.77;;;7.10;63.50;;;;;;6152227;23;20192;-83
2021/05/03 05:02:56;;;;;;;11.70;10.50;;;7.00;63.60;;;;;;6153081;23;20168;-83
2021/05/03 05:13:21;;;;;;;12.52;10.63;;;7.10;63.80;;;;;;6114003;23;20207;-80
2021/05/03 05:34:30;;;;;;;12.07;10.50;;;7.80;58.90;;;;;;6072626;23;20232;-78
2021/05/03 05:36:57;;;;;;;11.25;9.88;;;7.80;58.60;;;;;;6068162;23;20233;-78
2021/05/03 05:39:23;;;;;;;11.60;10.18;;;7.70;59.90;;;;;;6067783;23;20213;-80
2021/05/03 05:41:50;;;;;;;9.98;9.00;;;8.20;58.10;;;;;;6070584;23;20217;-77
2021/05/03 05:44:17;;;;;;;10.25;9.20;;;8.80;57.10;;;;;;6097058;23;20224;-78
2021/05/03 05:46:44;;;;;;;10.55;9.55;;;9.50;53.10;;;;;;6097398;23;20220;-79
2021/05/03 05:49:11;;;;;;;10.00;8.98;;;10.20;49.40;;;;;;6096450;23;20188;-77
2021/05/03 05:51:39;;;;;;;9.20;8.30;;;10.70;46.10;;;;;;6098811;23;20215;-77
2021/05/03 05:54:06;;;;;;;9.30;8.40;;;10.70;44.70;;;;;;6096880;23;20212;-77
2021/05/03 05:56:32;;;;;;;10.00;8.40;;;10.80;44.50;;;;;;6096366;23;20686;-77
2021/05/03 05:58:58;;;;;;;11.43;8.50;;;10.90;44.20;;;;;;6101115;23;20233;-77
2021/05/03 06:01:26;;;;;;;9.60;8.63;;;11.30;42.50;;;;;;6104357;23;20189;-76
2021/05/03 06:03:56;;;;;;;10.23;9.23;;;11.30;42.10;;;;;;6098952;23;20209;-77
2021/05/03 06:06:23;;;;;;;8.73;7.75;;;11.50;41.10;;;;;;6102103;23;20173;-77
2021/05/03 06:08:53;;;;;;;9.10;8.30;;;11.50;40.90;;;;;;6101678;23;20640;-77
2021/05/03 06:11:20;;;;;;;11.27;8.48;;;11.60;41.00;;;;;;6101435;23;20228;-76
2021/05/03 06:13:46;;;;;;;8.45;7.75;;;11.90;40.80;;;;;;6102570;23;20232;-77
2021/05/03 06:16:13;;;;;;;11.05;9.90;;;12.00;39.80;;;;;;6106400;23;20197;-75
2021/05/03 06:18:39;;;;;;;15.13;8.80;;;12.00;39.50;;;;;;6110169;23;20524;-77
2021/05/03 06:21:06;;;;;;;9.35;8.40;;;11.80;40.40;;;;;;6099496;23;20440;-76
2021/05/03 06:23:33;;;;;;;9.88;8.88;;;12.10;40.10;;;;;;6095856;23;20232;-76
2021/05/03 06:26:00;;;;;;;10.10;8.85;;;12.60;38.50;;;;;;6097312;23;20178;-76
2021/05/03 06:28:26;;;;;;;9.80;8.80;;;12.40;38.10;;;;;;6095794;23;20268;-75
2021/05/03 06:30:55;;;;;;;9.95;9.02;;;12.10;39.10;;;;;;6095530;23;20682;-75
2021/05/03 06:33:22;;;;;;;9.38;8.48;;;12.10;40.00;;;;;;6096764;23;20277;-76
2021/05/03 06:35:49;;;;;;;10.60;9.45;;;11.90;39.50;;;;;;6096583;23;20265;-78
2021/05/03 06:38:16;;;;;;;10.98;9.57;;;11.40;40.80;;;;;;6097683;23;20185;-77
2021/05/03 06:40:42;;;;;;;10.00;9.10;;;10.90;41.40;;;;;;6099082;23;20170;-76
2021/05/03 06:43:10;;;;;;;10.20;9.20;;;10.60;42.30;;;;;;6103307;23;20212;-77
2021/05/03 06:45:37;;;;;;;10.52;9.43;;;10.20;43.90;;;;;;6100368;23;20182;-77
2021/05/03 06:48:08;;;;;;;12.00;10.25;;;10.10;44.50;;;;;;6100711;23;20185;-76
2021/05/03 06:50:35;;;;;;;11.45;10.38;;;10.10;45.10;;;;;;6103016;23;20224;-76
2021/05/03 06:53:02;;;;;;;12.05;9.90;;;10.20;45.40;;;;;;6100858;23;20243;-76
2021/05/03 06:55:29;;;;;;;11.20;10.00;;;10.30;45.60;;;;;;6102042;23;20256;-77
2021/05/03 06:58:01;;;;;;;10.75;9.57;;;10.40;45.10;;;;;;6104764;23;20560;-76
2021/05/03 07:00:29;;;;;;;10.32;9.25;;;10.50;44.10;;;;;;6099358;23;20174;-77
2021/05/03 07:02:56;;;;;;;10.20;9.20;;;10.50;44.10;;;;;;6104203;23;20252;-77
2021/05/03 07:05:22;;;;;;;10.75;9.75;;;10.50;43.60;;;;;;6100368;23;20204;-76
2021/05/03 07:07:49;;;;;;;10.32;9.32;;;10.40;43.90;;;;;;6100199;23;20181;-77
2021/05/03 07:10:16;;;;;;;10.40;8.73;;;10.50;43.50;;;;;;6098554;23;20235;-77
2021/05/03 07:12:47;;;;;;;10.65;9.55;;;10.50;41.00;;;;;;6101892;23;20245;-77
2021/05/03 07:15:14;;;;;;;9.85;8.85;;;10.50;40.20;;;;;;6105421;23;20220;-76
2021/05/03 07:17:42;;;;;;;10.93;9.45;;;10.50;40.00;;;;;;6103055;23;20231;-77
2021/05/03 07:20:10;;;;;;;9.70;8.70;;;10.50;40.00;;;;;;6105627;23;20178;-77
2021/05/03 07:22:37;;;;;;;9.98;8.98;;;10.50;40.00;;;;;;6104248;23;20204;-78
2021/05/03 07:25:06;;;;;;;11.80;9.18;;;10.50;40.00;;;;;;6106159;23;20193;-77
2021/05/03 07:27:32;;;;;;;10.05;9.02;;;10.60;40.10;;;;;;6106379;23;20181;-76
2021/05/03 07:29:59;;;;;;;10.15;8.80;;;10.60;40.10;;;;;;6105470;23;20209;-76
2021/05/03 07:32:25;;;;;;;11.23;9.20;;;10.80;40.20;;;;;;6107678;23;20265;-77
2021/05/03 07:34:53;;;;;;;9.73;8.60;;;11.00;39.70;;;;;;6108414;23;20170;-80
2021/05/03 07:37:19;;;;;;;11.10;8.52;;;10.80;37.90;;;;;;6111663;23;20228;-79
2021/05/03 07:39:46;;;;;;;10.23;8.95;;;10.80;38.40;;;;;;6117719;23;20185;-80
2021/05/03 07:42:12;;;;;;;10.15;8.85;;;10.80;38.80;;;;;;6118414;23;20177;-79
2021/05/03 07:44:39;;;;;;;9.48;8.57;;;11.10;38.80;;;;;;6102277;23;20211;-79
2021/05/03 07:47:05;;;;;;;10.23;9.23;;;11.30;37.90;;;;;;6099200;23;20212;-79
2021/05/03 07:49:32;;;;;;;11.40;9.57;;;11.30;37.90;;;;;;6102745;23;20476;-79
2021/05/03 07:51:59;;;;;;;11.10;9.57;;;11.40;37.40;;;;;;6106303;23;20239;-82
2021/05/03 07:54:26;;;;;;;10.55;9.55;;;11.60;37.20;;;;;;6107376;23;20205;-80
2021/05/03 07:56:52;;;;;;;8.70;7.82;;;11.80;36.50;;;;;;6100516;23;20248;-80
2021/05/03 07:59:18;;;;;;;9.50;8.60;;;11.90;34.40;;;;;;6098738;23;20180;-78
2021/05/03 08:01:45;;;;;;;9.45;8.40;;;11.90;35.20;;;;;;6102226;23;20200;-79
2021/05/03 08:04:11;;;;;;;9.80;8.80;;;11.80;34.00;;;;;;6111367;23;20205;-77
2021/05/03 08:06:38;;;;;;;8.90;8.00;;;11.80;34.70;;;;;;6105333;23;20228;-78
2021/05/03 08:09:06;;;;;;;9.20;7.85;;;11.90;34.30;;;;;;6105726;23;20237;-77
2021/05/03 08:11:32;;;;;;;10.75;8.77;;;11.80;32.70;;;;;;6103930;23;20181;-78
2021/05/03 08:13:59;;;;;;;11.57;8.15;;;11.80;34.00;;;;;;6106300;23;20205;-79
2021/05/03 08:16:27;;;;;;;8.25;7.47;;;12.00;33.90;;;;;;6104211;23;20198;-80
2021/05/03 08:18:53;;;;;;;7.60;6.80;;;12.10;31.40;;;;;;6102545;23;20181;-80
2021/05/03 08:21:20;;;;;;;8.55;7.57;;;12.20;31.50;;;;;;6101396;23;20244;-79
2021/05/03 08:23:46;;;;;;;9.18;7.53;;;12.40;31.40;;;;;;6098163;23;20201;-80
2021/05/03 08:26:14;;;;;;;8.73;6.68;;;12.40;31.60;;;;;;6104615;23;20181;-79
2021/05/03 08:28:42;;;;;;;8.50;7.80;;;12.40;29.90;;;;;;6117704;23;20185;-79
2021/05/03 08:31:08;;;;;;;10.00;6.18;;;12.40;30.50;;;;;;6122072;23;20221;-80
2021/05/03 08:33:35;;;;;;;7.70;7.00;;;12.50;28.20;;;;;;6121814;23;20458;-80
2021/05/03 08:36:01;;;;;;;8.07;7.28;;;12.40;29.50;;;;;;6122593;23;20196;-76
2021/05/03 08:38:28;;;;;;;7.93;6.10;;;12.40;29.10;;;;;;6121486;23;20189;-77
2021/05/03 08:40:56;;;;;;;7.53;6.82;;;12.40;29.00;;;;;;6121394;23;20169;-77
2021/05/03 08:43:24;;;;;;;7.10;6.40;;;12.50;28.80;;;;;;6122557;23;20200;-79
2021/05/03 08:45:50;;;;;;;6.78;5.80;;;12.50;29.10;;;;;;6121202;23;20188;-78
2021/05/03 08:48:21;;;;;;;6.28;5.78;;;12.50;27.50;;;;;;6117038;23;20186;-80
2021/05/03 08:50:55;;;;;;;7.15;6.35;;;12.60;27.60;;;;;;6114762;23;20170;-77
2021/05/03 08:53:26;;;;;;;7.25;6.45;;;12.60;27.50;;;;;;6115237;23;20208;-77
2021/05/03 08:55:53;;;;;;;8.70;6.72;;;12.70;27.20;;;;;;6121655;23;20192;-80
2021/05/03 08:58:20;;;;;;;8.23;7.18;;;12.80;27.70;;;;;;6119523;23;20173;-79
2021/05/03 09:00:47;;;;;;;8.27;7.25;;;13.00;28.30;;;;;;6118998;23;20185;-78
2021/05/03 09:03:15;;;;;;;10.57;7.28;;;13.30;27.30;;;;;;6116787;23;20193;-80
2021/05/03 09:05:42;;;;;;;7.55;6.75;;;13.20;27.20;;;;;;6120897;23;20197;-80
2021/05/03 09:08:09;;;;;;;8.57;7.40;;;13.20;27.80;;;;;;6120670;23;20174;-79
2021/05/03 09:10:45;;;;;;;8.10;7.40;;;13.10;26.20;;;;;;6119555;23;20225;-80
2021/05/03 09:13:13;;;;;;;8.20;6.53;;;12.90;27.60;;;;;;6122172;23;20265;-82
2021/05/03 09:15:40;;;;;;;7.93;7.13;;;12.90;25.90;;;;;;6121097;23;20176;-79
2021/05/03 09:18:07;;;;;;;7.50;6.70;;;12.90;25.80;;;;;;6117656;23;20176;-80
2021/05/03 09:20:34;;;;;;;7.50;6.80;;;13.10;26.20;;;;;;6106998;23;20255;-79
2021/05/03 09:23:06;;;;;;;7.82;7.05;;;13.30;26.60;;;;;;6102879;23;20278;-82
2021/05/03 09:25:35;;;;;;;8.30;7.50;;;13.60;26.60;;;;;;6104183;23;20181;-79
2021/05/03 09:28:18;;;;;;;10.20;7.45;;;13.50;26.60;;;;;;6108135;23;20181;-81
2021/05/03 09:30:45;;;;;;;9.55;7.65;;;13.80;26.50;;;;;;6059537;23;20193;-81
2021/05/03 09:33:18;;;;;;;8.13;6.53;;;14.10;25.80;;;;;;6059854;23;20267;-79
2021/05/03 09:35:46;;;;;;;8.18;7.38;;;14.10;24.60;;;;;;6043852;23;20606;-79
2021/05/03 09:38:30;;;;;;;7.80;7.00;;;14.30;24.80;;;;;;6048265;23;20182;-79
2021/05/03 09:41:27;;;;;;;6.75;6.03;;;14.50;24.10;;;;;;6043853;23;20229;-81
2021/05/03 09:43:55;;;;;;;9.65;7.10;;;14.30;23.10;;;;;;5961280;24;20355;-79
2021/05/03 09:46:33;;;;;;;5.90;5.40;;;14.10;24.60;;;;;;6020848;23;20189;-79
2021/05/03 09:49:03;;;;;;;6.25;5.32;;;13.80;21.30;;;;;;6040935;23;20223;-81
2021/05/03 09:51:32;;;;;;;6.35;5.85;;;13.70;22.00;;;;;;6046360;23;20187;-79
2021/05/03 09:54:10;;;;;;;7.00;6.30;;;13.80;22.00;;;;;;6043313;23;20213;-78
2021/05/03 09:56:48;;;;;;;8.70;5.68;;;14.10;23.10;;;;;;6041069;23;20186;-80
2021/05/03 09:59:34;;;;;;;6.82;5.60;;;14.20;22.30;;;;;;6049450;23;20183;-82
2021/05/03 10:02:03;;;;;;;7.28;6.15;;;14.50;22.30;;;;;;6047374;23;20186;-78
2021/05/03 10:04:31;;;;;;;6.80;6.10;;;14.70;21.10;;;;;;6041771;23;20186;-79
2021/05/03 10:06:58;;;;;;;5.88;5.32;;;14.80;21.80;;;;;;6051918;23;20225;-80
2021/05/03 10:09:25;;;;;;;6.60;6.00;;;15.10;21.90;;;;;;6108825;23;20237;-78
2021/05/03 10:11:52;;;;;;;6.63;6.03;;;15.20;21.60;;;;;;6107041;23;20185;-80
2021/05/03 10:14:26;;;;;;;7.00;6.33;;;15.40;21.30;;;;;;6110433;23;20205;-81
2021/05/03 10:16:54;;;;;;;6.43;5.83;;;16.00;21.10;;;;;;6107237;23;20440;-81
2021/05/03 10:19:21;;;;;;;5.83;5.23;;;16.50;19.90;;;;;;6103669;23;20395;-78
2021/05/03 10:21:49;;;;;;;6.40;5.57;;;16.80;19.40;;;;;;6107791;23;20417;-79
2021/05/03 10:24:18;;;;;;;6.07;5.57;;;17.00;18.50;;;;;;6106181;23;20416;-79
2021/05/03 10:26:46;;;;;;;6.03;5.53;;;17.10;19.20;;;;;;6106823;23;20384;-78
2021/05/03 10:29:26;;;;;;;7.30;5.90;;;16.60;18.20;;;;;;6106341;23;20428;-80
2021/05/03 10:32:01;;;;;;;5.87;5.27;;;16.90;18.40;;;;;;6107144;23;20379;-77
2021/05/03 10:34:39;;;;;;;8.60;6.23;;;16.80;18.60;;;;;;6107567;23;20471;-78
2021/05/03 10:37:48;;;;;;;6.53;5.87;;;16.50;18.10;;;;;;6105395;23;20443;-77
2021/05/03 10:40:44;;;;;;;5.70;5.13;;;16.60;19.10;;;;;;6103525;23;20403;-76
2021/05/03 10:43:22;;;;;;;8.60;5.80;;;16.40;19.10;;;;;;6017057;23;20391;-77
2021/05/03 10:48:50;;;;;;;5.83;5.33;;;16.10;17.90;;;;;;6041644;23;20447;-75
2021/05/03 10:51:49;;;;;;;5.43;4.43;;;15.70;17.70;;;;;;6041291;23;20389;-77
2021/05/03 10:54:46;;;;;;;7.50;5.80;;;15.50;19.90;;;;;;6041370;23;20410;-76
2021/05/03 10:57:41;;;;;;;7.17;5.90;;;15.80;19.50;;;;;;6042317;23;20421;-78
2021/05/03 11:00:29;;;;;;;6.23;5.63;;;16.10;19.50;;;;;;6020311;23;20394;-76
2021/05/03 11:02:56;;;;;;;5.70;5.30;;;16.00;19.30;;;;;;6041321;23;20904;-77
2021/05/03 11:05:25;;;;;;;6.47;5.73;;;16.20;18.80;;;;;;6047544;23;20382;-77
2021/05/03 11:08:28;;;;;;;6.57;6.00;;;16.20;19.30;;;;;;6039829;23;20411;-78
2021/05/03 11:11:04;;;;;;;5.40;4.97;;;15.90;19.70;;;;;;6041735;23;20493;-77
2021/05/03 11:13:46;;;;;;;6.80;5.53;;;16.10;20.10;;;;;;6039018;23;20440;-77
2021/05/03 11:16:51;;;;;;;5.47;4.97;;;16.10;20.40;;;;;;6039675;23;20439;-77
2021/05/03 11:22:43;;;;;;;5.90;5.30;;;16.30;18.00;;;;;;6041506;23;20402;-78
2021/05/03 11:25:11;;;;;;;5.00;4.50;;;16.10;17.80;;;;;;6074514;23;20481;-77
2021/05/03 11:27:48;;;;;;;7.63;4.90;;;16.00;17.80;;;;;;6103640;23;20802;-76
2021/05/03 11:30:23;;;;;;;15.17;6.20;;;16.30;18.00;;;;;;6101548;23;20368;-77
2021/05/03 11:32:53;;;;;;;5.47;5.00;;;16.20;17.90;;;;;;6102136;23;20442;-78
2021/05/03 11:35:28;;;;;;;6.57;5.97;;;16.20;17.90;;;;;;6109130;23;20432;-76
2021/05/03 11:38:01;;;;;;;6.03;5.43;;;16.50;18.20;;;;;;6101012;23;20495;-77
2021/05/03 11:40:46;;;;;;;5.87;5.27;;;16.50;18.10;;;;;;6099981;23;20413;-77
2021/05/03 11:43:50;;;;;;;5.10;4.70;;;16.50;17.30;;;;;;6100230;23;20416;-77
2021/05/03 11:46:25;;;;;;;6.00;5.40;;;16.30;18.00;;;;;;6100554;23;20393;-78
2021/05/03 11:48:52;;;;;;;5.87;5.37;;;16.70;17.90;;;;;;6102543;23;20431;-76
2021/05/03 11:51:19;;;;;;;5.53;4.43;;;16.80;17.80;;;;;;6100681;23;20413;-77
2021/05/03 11:53:46;;;;;;;5.90;5.30;;;16.80;17.20;;;;;;6098673;23;20465;-77
2021/05/03 11:56:21;;;;;;;5.87;5.37;;;16.30;18.00;;;;;;6100343;23;20528;-77
2021/05/03 11:58:51;;;;;;;4.67;4.30;;;16.10;17.80;;;;;;6112641;23;20400;-74
2021/05/03 12:01:18;;;;;;;6.97;4.03;;;16.10;16.70;;;;;;6109016;23;20399;-76
2021/05/03 12:03:46;;;;;;;5.57;5.10;;;16.00;17.40;;;;;;6099548;23;20223;-77
2021/05/03 12:06:31;;;;;;;7.60;5.40;;;15.90;16.80;;;;;;6106213;23;20422;-76
2021/05/03 12:08:59;;;;;;;5.50;4.57;;;15.90;17.70;;;;;;6120512;23;20360;-75
2021/05/03 12:11:26;;;;;;;5.30;4.77;;;16.10;17.10;;;;;;6122487;23;20396;-75
2021/05/03 12:13:56;;;;;;;5.20;4.80;;;15.80;17.60;;;;;;6120144;23;20388;-77
2021/05/03 12:16:38;;;;;;;5.87;4.77;;;15.90;17.70;;;;;;6102131;23;20415;-77
2021/05/03 12:19:12;;;;;;;5.20;4.30;;;15.70;17.50;;;;;;6099078;23;20458;-78
2021/05/03 12:21:40;;;;;;;6.03;5.53;;;15.70;18.50;;;;;;6101282;23;20388;-77
2021/05/03 12:24:15;;;;;;;7.43;5.30;;;15.60;18.80;;;;;;6100832;23;20707;-77
2021/05/03 12:26:55;;;;;;;7.47;6.20;;;15.60;19.30;;;;;;6099915;23;20204;-76
2021/05/03 12:29:23;;;;;;;6.60;6.00;;;15.70;19.60;;;;;;6100104;23;20961;-75
2021/05/03 12:31:51;;;;;;;7.30;4.80;;;16.00;19.40;;;;;;6098254;23;20847;-76
2021/05/03 12:34:20;;;;;;;5.83;5.33;;;16.60;19.30;;;;;;6098633;23;20424;-77
2021/05/03 12:37:11;;;;;;;6.20;5.00;;;17.00;18.50;;;;;;6100689;23;20978;-78
2021/05/03 12:39:41;;;;;;;5.13;4.60;;;17.00;18.50;;;;;;6106159;23;20376;-77
2021/05/03 12:42:15;;;;;;;12.70;6.30;;;17.00;18.50;;;;;;6111008;23;20394;-77
2021/05/03 12:44:46;;;;;;;4.87;4.47;;;17.10;18.60;;;;;;6103328;23;20425;-77
2021/05/03 12:47:26;;;;;;;5.60;5.10;;;17.10;18.60;;;;;;6099215;23;20372;-78
2021/05/03 12:50:02;;;;;;;4.30;3.90;;;16.90;18.40;;;;;;6101627;23;20413;-77
2021/05/03 12:52:34;;;;;;;6.57;4.40;;;16.70;18.20;;;;;;6099810;23;20444;-76
2021/05/03 12:55:05;;;;;;;4.03;3.70;;;16.60;18.20;;;;;;6099168;23;20456;-76
2021/05/03 12:58:00;;;;;;;4.33;3.93;;;16.30;18.00;;;;;;6100030;23;20467;-77
2021/05/03 13:00:49;;;;;;;6.53;4.37;;;16.30;18.00;;;;;;6100193;23;20460;-76
2021/05/03 13:03:18;;;;;;;4.40;3.93;;;16.40;17.20;;;;;;6098973;23;20921;-78
2021/05/03 13:05:51;;;;;;;4.43;4.03;;;16.50;17.70;;;;;;6100882;23;20769;-76
2021/05/03 13:08:49;;;;;;;5.13;4.63;;;16.60;17.10;;;;;;6101632;23;20379;-76
2021/05/03 13:22:55;;;;;;;5.90;4.77;;;17.30;16.70;;;;;;6098442;23;20424;-76
2021/05/03 13:25:34;;;;;;;5.47;4.97;;;16.70;16.80;;;;;;6098536;23;20484;-75
2021/05/03 13:28:10;;;;;;;5.32;4.82;;;16.50;17.00;;;;;;6100081;23;20411;-76
2021/05/03 13:30:38;;;;;;;5.80;4.60;;;16.30;17.50;;;;;;6098635;23;20296;-76
2021/05/03 13:33:06;;;;;;;6.10;5.43;;;16.30;18.00;;;;;;6097189;23;20462;-77
2021/05/03 13:35:34;;;;;;;5.80;4.80;;;16.50;17.90;;;;;;6097952;23;20474;-76
2021/05/03 13:38:01;;;;;;;5.97;5.37;;;16.60;17.60;;;;;;6102534;23;20420;-75
2021/05/03 13:40:27;;;;;;;9.27;6.03;;;16.60;17.70;;;;;;6105174;23;20466;-76
2021/05/03 13:42:54;;;;;;;5.20;4.50;;;16.70;17.50;;;;;;6109568;23;20408;-75
2021/05/03 13:45:22;;;;;;;4.93;4.47;;;16.70;18.30;;;;;;6111478;23;20413;-76
2021/05/03 13:47:50;;;;;;;5.70;5.10;;;16.90;17.20;;;;;;6102559;23;20756;-76
2021/05/03 13:50:17;;;;;;;5.40;4.90;;;16.90;16.50;;;;;;6098925;23;20455;-75
2021/05/03 13:52:44;;;;;;;5.07;4.67;;;16.80;17.70;;;;;;6098743;23;20486;-77
2021/05/03 13:55:11;;;;;;;5.13;4.73;;;16.50;18.10;;;;;;6097271;23;20420;-75
2021/05/03 13:57:38;;;;;;;5.37;4.87;;;16.40;18.10;;;;;;6098723;23;20794;-77
2021/05/03 14:00:06;;;;;;;5.43;5.03;;;16.40;18.10;;;;;;6097100;23;20860;-75